createdAt,value
2022-08-05T00:00:17.664Z,51.39
2022-08-05T00:02:51.057Z,51.26
2022-08-05T00:06:03.051Z,51.45
2022-08-05T00:08:20.016Z,51.38
2022-08-05T00:10:52.923Z,51.60
2022-08-05T00:13:19.840Z,51.62
2022-08-05T00:15:55.149Z,51.82
2022-08-05T00:18:24.789Z,52.07
2022-08-05T00:20:51.368Z,52.52
2022-08-05T00:23:30.783Z,52.76
2022-08-05T00:26:04.795Z,52.93
2022-08-05T00:28:31.504Z,52.94
2022-08-05T00:31:04.284Z,53.10
2022-08-05T00:34:56.407Z,53.02
2022-08-05T00:37:09.055Z,53.44
2022-08-05T00:39:04.725Z,53.37
2022-08-05T00:41:51.663Z,53.71
2022-08-05T00:44:19.242Z,53.94
2022-08-05T00:46:47.365Z,54.20
2022-08-05T00:49:20.489Z,54.03
2022-08-05T00:51:50.270Z,54.22
2022-08-05T00:54:18.089Z,54.41
2022-08-05T00:56:51.549Z,54.86
2022-08-05T00:59:18.406Z,54.97
2022-08-05T01:01:48.755Z,55.08
2022-08-05T01:04:19.903Z,55.37
2022-08-05T01:06:51.730Z,56.02
2022-08-05T01:09:20.113Z,55.34
2022-08-05T01:11:48.884Z,55.76
2022-08-05T01:14:28.744Z,55.77
2022-08-05T01:17:05.277Z,55.83
2022-08-05T01:20:00.913Z,56.09
2022-08-05T01:22:32.111Z,56.11
2022-08-05T01:25:15.673Z,56.67
2022-08-05T01:27:58.468Z,56.59
2022-08-05T01:30:34.323Z,56.49
2022-08-05T01:33:03.887Z,56.60
2022-08-05T01:35:51.030Z,56.26
2022-08-05T01:38:27.609Z,56.27
2022-08-05T01:40:57.848Z,56.85
2022-08-05T01:43:25.010Z,57.45
2022-08-05T01:45:56.559Z,57.44
2022-08-05T01:48:24.987Z,58.20
2022-08-05T01:50:52.323Z,58.14
2022-08-05T01:53:54.575Z,58.40
2022-08-05T01:56:09.327Z,59.03
2022-08-05T01:58:44.620Z,58.94
2022-08-05T02:01:13.423Z,59.66
2022-08-05T02:03:45.201Z,60.08
2022-08-05T02:06:37.910Z,60.94
2022-08-05T02:08:59.380Z,61.34
2022-08-05T02:11:33.284Z,61.58
2022-08-05T02:14:24.946Z,62.68
2022-08-05T02:16:54.059Z,62.29
2022-08-05T02:19:27.553Z,63.71
2022-08-05T02:22:05.534Z,63.78
2022-08-05T02:24:37.779Z,64.20
2022-08-05T02:27:10.367Z,63.58
2022-08-05T02:29:59.233Z,63.78
2022-08-05T02:32:30.835Z,63.93
2022-08-05T02:35:13.613Z,64.20
2022-08-05T02:37:41.930Z,65.60
2022-08-05T02:40:10.141Z,66.55
2022-08-05T02:42:37.775Z,67.14
2022-08-05T02:45:04.954Z,68.01
2022-08-05T02:48:07.357Z,69.30
2022-08-05T02:50:21.930Z,70.53
2022-08-05T02:52:49.834Z,72.38
2022-08-05T02:55:17.615Z,72.72
2022-08-05T02:58:09.165Z,73.65
2022-08-05T03:00:39.515Z,75.66
2022-08-05T03:03:07.728Z,77.57
2022-08-05T03:06:56.882Z,78.17
2022-08-05T03:08:29.745Z,78.59
2022-08-05T03:11:53.287Z,80.00
2022-08-05T03:13:51.731Z,80.63
2022-08-05T03:16:29.425Z,80.92
2022-08-05T03:18:57.976Z,81.55
2022-08-05T03:21:24.407Z,81.78
2022-08-05T03:23:55.565Z,82.70
2022-08-05T03:26:31.322Z,82.69
2022-08-05T03:28:59.107Z,82.24
2022-08-05T03:31:56.533Z,82.42
2022-08-05T03:34:12.527Z,83.03
2022-08-05T03:36:38.998Z,82.48
2022-08-05T03:39:08.015Z,83.41
2022-08-05T03:41:46.776Z,84.28
2022-08-05T03:44:13.561Z,85.08
2022-08-05T03:46:46.536Z,85.40
2022-08-05T03:49:13.037Z,85.01
2022-08-05T03:52:36.872Z,85.89
2022-08-05T03:55:53.362Z,86.48
2022-08-05T03:57:44.372Z,86.18
2022-08-05T04:00:15.509Z,86.43
2022-08-05T04:02:58.135Z,86.01
2022-08-05T04:05:33.905Z,85.60
2022-08-05T04:08:05.828Z,86.08
2022-08-05T04:10:42.913Z,86.27
2022-08-05T04:13:09.443Z,86.55
2022-08-05T04:15:36.750Z,86.13
2022-08-05T04:18:07.060Z,85.92
2022-08-05T04:20:35.776Z,85.91
2022-08-05T04:23:02.206Z,86.13
2022-08-05T04:25:57.460Z,85.65
2022-08-05T04:28:17.220Z,85.52
2022-08-05T04:30:44.223Z,85.96
2022-08-05T04:33:10.697Z,85.74
2022-08-05T04:36:11.358Z,85.83
2022-08-05T04:38:23.620Z,85.69
2022-08-05T04:41:06.589Z,85.96
2022-08-05T04:43:33.905Z,85.89
2022-08-05T04:46:00.466Z,86.27
2022-08-05T04:48:27.881Z,86.25
2022-08-05T04:51:02.829Z,86.58
2022-08-05T04:53:33.315Z,86.70
2022-08-05T04:56:33.365Z,86.18
2022-08-05T04:58:48.244Z,85.92
2022-08-05T05:01:14.761Z,84.98
2022-08-05T05:04:00.528Z,85.21
2022-08-05T05:06:40.441Z,85.64
2022-08-05T05:09:17.429Z,85.75
2022-08-05T05:11:55.643Z,85.83
2022-08-05T05:14:27.819Z,87.05
2022-08-05T05:16:59.647Z,86.86
2022-08-05T05:19:27.259Z,86.94
2022-08-05T05:21:55.586Z,87.30
2022-08-05T05:24:22.192Z,86.96
2022-08-05T05:27:08.619Z,85.73
2022-08-05T05:30:03.628Z,85.26
2022-08-05T05:32:21.471Z,84.93
2022-08-05T05:34:47.896Z,84.91
2022-08-05T05:37:19.017Z,84.65
2022-08-05T05:39:45.533Z,85.08
2022-08-05T05:42:12.082Z,85.36
2022-08-05T05:44:44.372Z,86.35
2022-08-05T05:47:13.314Z,87.16
2022-08-05T05:49:56.449Z,87.34
2022-08-05T05:52:28.453Z,88.74
2022-08-05T05:55:01.828Z,88.30
2022-08-05T05:57:51.892Z,88.30
2022-08-05T06:00:20.903Z,88.35
2022-08-05T06:02:54.297Z,87.27
2022-08-05T06:05:21.311Z,88.34
2022-08-05T06:08:01.182Z,88.82
2022-08-05T06:10:29.462Z,88.99
2022-08-05T06:13:03.823Z,88.90
2022-08-05T06:16:28.554Z,88.94
2022-08-05T06:18:16.674Z,88.66
2022-08-05T06:20:47.774Z,88.79
2022-08-05T06:23:14.433Z,88.53
2022-08-05T06:26:12.309Z,88.01
2022-08-05T06:28:28.616Z,88.48
2022-08-05T06:30:55.178Z,88.02
2022-08-05T06:33:33.389Z,87.17
2022-08-05T06:36:10.084Z,86.85
2022-08-05T06:38:37.222Z,86.73
2022-08-05T06:41:05.206Z,85.12
2022-08-05T06:43:57.956Z,86.67
2022-08-05T06:46:21.076Z,83.72
2022-08-05T06:48:56.840Z,82.84
2022-08-05T06:51:29.827Z,81.82
2022-08-05T06:53:58.767Z,81.87
2022-08-05T06:56:26.303Z,82.39
2022-08-05T06:58:53.332Z,82.86
2022-08-05T07:01:20.991Z,83.11
2022-08-05T07:03:47.741Z,83.55
2022-08-05T07:06:15.274Z,83.49
2022-08-05T07:08:47.150Z,83.38
2022-08-05T07:11:15.373Z,83.39
2022-08-05T07:14:01.362Z,83.76
2022-08-05T07:18:00.996Z,83.91
2022-08-05T07:22:28.215Z,84.69
2022-08-05T07:25:24.078Z,85.47
2022-08-05T07:27:57.305Z,85.65
2022-08-05T07:30:32.088Z,85.65
2022-08-05T07:33:08.897Z,85.84
2022-08-05T07:36:02.605Z,86.58
2022-08-05T07:38:32.421Z,86.17
2022-08-05T07:41:16.861Z,86.96
2022-08-05T07:43:49.390Z,86.75
2022-08-05T07:46:24.446Z,86.74
2022-08-05T07:49:03.350Z,85.97
2022-08-05T07:51:41.049Z,85.41
2022-08-05T07:54:21.984Z,85.09
2022-08-05T07:57:01.507Z,85.32
2022-08-05T07:59:39.770Z,84.75
2022-08-05T08:02:16.063Z,84.47
2022-08-05T08:04:48.592Z,84.64
2022-08-05T08:07:16.273Z,85.09
2022-08-05T08:09:44.965Z,84.81
2022-08-05T08:12:37.115Z,83.33
2022-08-05T08:15:02.567Z,83.25
2022-08-05T08:17:30.839Z,83.97
2022-08-05T08:20:21.925Z,84.07
2022-08-05T08:22:43.724Z,84.16
2022-08-05T08:25:16.463Z,83.97
2022-08-05T08:27:47.973Z,82.74
2022-08-05T08:30:29.936Z,82.39
2022-08-05T08:33:13.963Z,83.19
2022-08-05T08:35:52.691Z,83.38
2022-08-05T08:38:35.512Z,81.39
2022-08-05T08:41:08.608Z,80.59
2022-08-05T08:45:16.942Z,80.26
2022-08-05T08:46:24.035Z,79.35
2022-08-05T08:49:08.003Z,78.17
2022-08-05T08:52:03.909Z,77.80
2022-08-05T08:54:27.676Z,78.05
2022-08-05T08:56:54.236Z,76.07
2022-08-05T08:59:23.220Z,74.61
2022-08-05T09:02:01.164Z,75.08
2022-08-05T09:04:30.528Z,75.57
2022-08-05T09:06:57.676Z,74.87
2022-08-05T09:09:25.083Z,74.37
2022-08-05T09:11:55.813Z,74.54
2022-08-05T09:14:57.070Z,72.55
2022-08-05T09:17:40.873Z,71.96
2022-08-05T09:20:06.137Z,72.70
2022-08-05T09:23:19.948Z,73.19
2022-08-05T09:26:01.504Z,73.03
2022-08-05T09:28:32.044Z,71.35
2022-08-05T09:31:22.320Z,72.14
2022-08-05T09:34:07.480Z,73.25
2022-08-05T09:36:45.683Z,72.59
2022-08-05T09:39:22.230Z,72.38
2022-08-05T09:42:03.760Z,71.92
2022-08-05T09:44:42.442Z,71.23
2022-08-05T09:47:15.640Z,70.06
2022-08-05T09:50:00.381Z,68.71
2022-08-05T09:52:34.943Z,69.42
2022-08-05T09:55:58.580Z,69.08
2022-08-05T09:57:54.733Z,69.81
2022-08-05T10:00:25.856Z,69.13
2022-08-05T10:02:54.624Z,68.47
2022-08-05T10:05:26.727Z,67.68
2022-08-05T10:08:35.288Z,67.68
2022-08-05T10:10:44.046Z,67.63
2022-08-05T10:13:10.593Z,67.46
2022-08-05T10:15:39.155Z,67.19
2022-08-05T10:18:22.777Z,66.83
2022-08-05T10:20:51.851Z,66.68
2022-08-05T10:23:55.972Z,65.00
2022-08-05T10:26:14.329Z,64.58
2022-08-05T10:28:42.980Z,65.91
2022-08-05T10:32:53.914Z,64.23
2022-08-05T10:33:58.607Z,63.14
2022-08-05T10:36:27.089Z,63.11
2022-08-05T10:39:01.037Z,63.32
2022-08-05T10:41:45.200Z,63.48
2022-08-05T10:44:17.179Z,62.25
2022-08-05T10:46:50.886Z,61.65
2022-08-05T10:49:27.217Z,61.74
2022-08-05T10:52:02.360Z,61.77
2022-08-05T10:55:02.938Z,61.85
2022-08-05T10:57:32.113Z,61.42
2022-08-05T11:00:19.240Z,60.68
2022-08-05T11:03:24.575Z,59.94
2022-08-05T11:06:15.196Z,59.96
2022-08-05T11:09:16.597Z,60.75
2022-08-05T11:11:53.299Z,59.55
2022-08-05T11:14:57.628Z,58.19
2022-08-05T11:18:00.521Z,57.29
2022-08-05T11:20:43.727Z,57.50
2022-08-05T11:24:14.740Z,56.75
2022-08-05T11:26:49.615Z,57.32
2022-08-05T11:29:42.167Z,57.78
2022-08-05T11:32:29.118Z,56.30
2022-08-05T11:34:57.363Z,55.01
2022-08-05T11:38:29.001Z,55.75
2022-08-05T11:41:01.368Z,55.26
2022-08-05T11:44:06.692Z,55.64
2022-08-05T11:47:09.925Z,57.18
2022-08-05T11:49:34.293Z,56.87
2022-08-05T11:52:01.910Z,56.16
2022-08-05T11:54:38.328Z,56.62
2022-08-05T11:57:25.635Z,56.58
2022-08-05T11:59:54.153Z,57.71
2022-08-05T12:02:32.038Z,57.81
2022-08-05T12:05:01.326Z,59.44
2022-08-05T12:08:03.638Z,59.78
2022-08-05T12:10:23.049Z,60.09
2022-08-05T12:12:59.891Z,60.42
2022-08-05T12:15:37.939Z,61.05
2022-08-05T12:18:10.794Z,61.42
2022-08-05T12:20:39.315Z,61.30
2022-08-05T12:23:12.488Z,60.94
2022-08-05T12:25:53.561Z,60.65
2022-08-05T12:28:37.077Z,60.44
2022-08-05T12:31:04.939Z,60.40
2022-08-05T12:33:36.499Z,59.67
2022-08-05T12:36:08.146Z,59.67
2022-08-05T12:38:37.236Z,59.81
2022-08-05T12:41:03.824Z,58.88
2022-08-05T12:43:32.018Z,59.16
2022-08-05T12:45:58.855Z,58.65
2022-08-05T12:48:32.338Z,57.86
2022-08-05T12:52:10.414Z,56.98
2022-08-05T12:54:04.470Z,57.45
2022-08-05T12:56:43.237Z,56.82
2022-08-05T12:59:20.768Z,56.35
2022-08-05T13:02:08.178Z,55.87
2022-08-05T13:04:41.856Z,55.54
2022-08-05T13:07:54.749Z,55.89
2022-08-05T13:10:14.522Z,55.64
2022-08-05T13:12:57.548Z,55.62
2022-08-05T13:15:41.680Z,56.28
2022-08-05T13:18:18.907Z,57.78
2022-08-05T13:20:47.478Z,57.14
2022-08-05T13:23:16.319Z,57.36
2022-08-05T13:25:52.837Z,58.11
2022-08-05T13:28:26.580Z,58.33
2022-08-05T13:30:53.290Z,58.94
2022-08-05T13:34:22.108Z,58.87
2022-08-05T13:36:07.118Z,58.61
2022-08-05T13:38:36.194Z,58.50
2022-08-05T13:41:05.932Z,59.25
2022-08-05T13:43:45.235Z,59.90
2022-08-05T13:46:35.862Z,60.12
2022-08-05T13:49:09.865Z,61.18
2022-08-05T13:51:41.276Z,61.61
2022-08-05T13:54:11.866Z,61.20
2022-08-05T13:56:45.217Z,61.28
2022-08-05T13:59:20.454Z,61.33
2022-08-05T14:01:57.489Z,62.06
2022-08-05T14:04:51.731Z,63.36
2022-08-05T14:07:25.873Z,64.42
2022-08-05T14:10:19.286Z,64.42
2022-08-05T14:12:54.805Z,65.41
2022-08-05T14:16:07.675Z,65.64
2022-08-05T14:18:14.604Z,65.48
2022-08-05T14:20:46.935Z,65.15
2022-08-05T14:23:14.774Z,63.64
2022-08-05T14:25:54.302Z,62.46
2022-08-05T14:28:26.887Z,61.41
2022-08-05T14:30:54.376Z,62.33
2022-08-05T14:33:22.711Z,61.97
2022-08-05T14:35:51.771Z,62.31
2022-08-05T14:38:32.739Z,61.67
2022-08-05T14:41:05.763Z,61.48
2022-08-05T14:44:02.530Z,62.01
2022-08-05T14:46:21.704Z,62.24
2022-08-05T14:48:49.235Z,61.58
2022-08-05T14:51:17.650Z,62.68
2022-08-05T14:53:44.908Z,61.68
2022-08-05T14:56:13.432Z,60.69
2022-08-05T14:58:47.566Z,60.31
2022-08-05T15:01:16.172Z,60.95
2022-08-05T15:03:44.104Z,61.38
2022-08-05T15:06:14.917Z,61.93
2022-08-05T15:09:01.541Z,61.53
2022-08-05T15:11:51.788Z,62.10
2022-08-05T15:14:20.190Z,61.84
2022-08-05T15:17:03.941Z,61.75
2022-08-05T15:19:30.911Z,61.65
2022-08-05T15:21:58.025Z,61.46
2022-08-05T15:24:27.306Z,61.05
2022-08-05T15:26:53.779Z,61.16
2022-08-05T15:29:22.527Z,60.84
2022-08-05T15:31:52.851Z,60.53
2022-08-05T15:34:31.866Z,60.61
2022-08-05T15:37:03.430Z,60.70
2022-08-05T15:41:04.132Z,60.44
2022-08-05T15:42:49.972Z,59.41
2022-08-05T15:45:06.057Z,58.68
2022-08-05T15:47:32.837Z,59.09
2022-08-05T15:50:03.351Z,59.32
2022-08-05T15:52:53.303Z,58.79
2022-08-05T15:55:17.815Z,59.14
2022-08-05T15:57:45.955Z,59.08
2022-08-05T16:00:26.153Z,59.27
2022-08-05T16:02:59.422Z,59.52
2022-08-05T16:05:28.267Z,60.08
2022-08-05T16:07:54.978Z,60.09
2022-08-05T16:10:25.520Z,60.67
2022-08-05T16:12:56.157Z,60.80
2022-08-05T16:15:23.053Z,60.19
2022-08-05T16:17:57.866Z,60.00
2022-08-05T16:20:25.173Z,59.73
2022-08-05T16:22:51.642Z,59.87
2022-08-05T16:25:18.226Z,59.84
2022-08-05T16:27:59.764Z,59.05
2022-08-05T16:30:32.168Z,59.49
2022-08-05T16:32:59.727Z,58.80
2022-08-05T16:35:28.701Z,58.60
2022-08-05T16:38:02.533Z,57.97
2022-08-05T16:40:41.381Z,57.02
2022-08-05T16:43:07.928Z,56.74
2022-08-05T16:46:04.819Z,56.62
2022-08-05T16:48:25.787Z,56.57
2022-08-05T16:50:59.530Z,56.49
2022-08-05T16:53:31.900Z,56.44
2022-08-05T16:55:59.336Z,56.09
2022-08-05T16:58:26.461Z,56.38
2022-08-05T17:00:52.997Z,56.18
2022-08-05T17:03:19.989Z,56.16
2022-08-05T17:05:53.359Z,56.08
2022-08-05T17:08:51.807Z,55.60
2022-08-05T17:11:12.585Z,54.32
2022-08-05T17:13:43.616Z,51.10
2022-08-05T17:16:29.869Z,47.08
2022-08-05T17:18:56.913Z,43.33
2022-08-05T17:21:23.806Z,43.01
2022-08-05T17:24:04.855Z,44.24
2022-08-05T17:26:35.363Z,45.26
2022-08-05T17:29:04.208Z,46.20
2022-08-05T17:31:57.047Z,47.27
2022-08-05T17:34:20.744Z,48.09
2022-08-05T17:36:56.722Z,49.17
2022-08-05T17:39:24.380Z,49.64
2022-08-05T17:42:17.860Z,50.26
2022-08-05T17:44:51.032Z,50.85
2022-08-05T17:47:22.021Z,51.52
2022-08-05T17:50:04.036Z,51.57
2022-08-05T17:52:52.679Z,52.12
2022-08-05T17:55:20.818Z,52.33
2022-08-05T17:57:48.687Z,52.50
2022-08-05T18:00:17.225Z,53.07
2022-08-05T18:02:46.675Z,52.86
2022-08-05T18:05:13.687Z,52.99
2022-08-05T18:07:44.412Z,52.76
2022-08-05T18:10:20.570Z,52.67
2022-08-05T18:12:48.714Z,52.56
2022-08-05T18:15:15.169Z,52.80
2022-08-05T18:18:00.668Z,52.92
2022-08-05T18:20:29.145Z,52.59
2022-08-05T18:22:58.660Z,52.63
2022-08-05T18:25:33.067Z,52.76
2022-08-05T18:27:59.814Z,52.82
2022-08-05T18:30:32.223Z,52.83
2022-08-05T18:33:00.895Z,53.53
2022-08-05T18:35:50.036Z,53.43
2022-08-05T18:38:18.902Z,54.24
2022-08-05T18:41:57.288Z,54.02
2022-08-05T18:43:38.328Z,54.46
2022-08-05T18:46:09.947Z,54.67
2022-08-05T18:48:36.708Z,55.13
2022-08-05T18:52:03.069Z,55.02
2022-08-05T18:54:13.361Z,55.52
2022-08-05T18:56:40.350Z,55.76
2022-08-05T18:59:44.228Z,55.87
2022-08-05T19:01:57.972Z,56.20
2022-08-05T19:04:25.543Z,56.21
2022-08-05T19:06:53.778Z,56.64
2022-08-05T19:09:21.177Z,56.86
2022-08-05T19:11:59.533Z,56.86
2022-08-05T19:14:37.855Z,57.32
2022-08-05T19:17:14.295Z,57.24
2022-08-05T19:19:46.330Z,57.50
2022-08-05T19:22:17.046Z,57.84
2022-08-05T19:24:54.617Z,57.71
2022-08-05T19:27:23.446Z,58.29
2022-08-05T19:29:50.098Z,58.45
2022-08-05T19:32:16.551Z,58.30
2022-08-05T19:34:55.104Z,58.53
2022-08-05T19:37:35.135Z,58.45
2022-08-05T19:40:10.795Z,58.59
2022-08-05T19:42:38.896Z,58.57
2022-08-05T19:45:07.150Z,58.92
2022-08-05T19:47:37.205Z,58.85
2022-08-05T19:50:04.861Z,59.07
2022-08-05T19:52:34.102Z,59.23
2022-08-05T19:55:08.805Z,59.28
2022-08-05T19:58:14.518Z,59.45
2022-08-05T20:00:35.618Z,59.04
2022-08-05T20:03:08.594Z,59.84
2022-08-05T20:05:43.403Z,59.56
2022-08-05T20:08:18.018Z,59.78
2022-08-05T20:10:44.509Z,59.85
2022-08-05T20:13:15.926Z,59.95
2022-08-05T20:15:52.389Z,60.02
2022-08-05T20:18:33.721Z,60.37
2022-08-05T20:21:04.434Z,60.48
2022-08-05T20:23:40.686Z,60.64
2022-08-05T20:26:19.899Z,61.04
2022-08-05T20:28:48.530Z,61.44
2022-08-05T20:31:16.553Z,61.05
2022-08-05T20:33:43.670Z,61.33
2022-08-05T20:36:11.408Z,61.72
2022-08-05T20:38:40.915Z,61.65
2022-08-05T20:41:23.939Z,61.79
2022-08-05T20:43:58.611Z,62.13
2022-08-05T20:46:26.979Z,61.95
2022-08-05T20:48:53.446Z,62.49
2022-08-05T20:51:21.258Z,62.33
2022-08-05T20:53:55.100Z,62.93
2022-08-05T20:56:28.685Z,62.82
2022-08-05T20:59:00.007Z,64.00
2022-08-05T21:01:38.597Z,63.70
2022-08-05T21:04:07.170Z,64.08
2022-08-05T21:06:37.032Z,64.22
2022-08-05T21:09:07.438Z,63.70
2022-08-05T21:12:06.884Z,63.97
2022-08-05T21:14:23.492Z,63.18
2022-08-05T21:16:53.177Z,63.56
2022-08-05T21:19:20.115Z,63.35
2022-08-05T21:21:50.795Z,63.56
2022-08-05T21:24:19.491Z,63.62
2022-08-05T21:26:57.935Z,63.66
2022-08-05T21:29:31.304Z,64.32
2022-08-05T21:31:59.051Z,64.01
2022-08-05T21:34:25.502Z,64.03
2022-08-05T21:36:54.742Z,64.31
2022-08-05T21:39:26.660Z,64.30
2022-08-05T21:42:01.870Z,63.87
2022-08-05T21:44:29.525Z,64.07
2022-08-05T21:46:58.341Z,63.69
2022-08-05T21:49:48.128Z,62.96
2022-08-05T21:52:27.749Z,62.26
2022-08-05T21:54:54.987Z,61.83
2022-08-05T21:57:31.724Z,61.01
2022-08-05T22:00:04.971Z,60.90
2022-08-05T22:02:32.190Z,60.11
2022-08-05T22:04:58.806Z,59.81
2022-08-05T22:07:39.921Z,59.87
2022-08-05T22:10:11.883Z,60.00
2022-08-05T22:12:40.223Z,59.71
2022-08-05T22:15:16.592Z,59.15
2022-08-05T22:18:02.612Z,59.11
2022-08-05T22:20:29.064Z,58.90
2022-08-05T22:23:16.910Z,58.71
2022-08-05T22:26:11.206Z,58.81
2022-08-05T22:28:38.021Z,58.57
2022-08-05T22:31:05.771Z,58.90
2022-08-05T22:33:58.373Z,58.41
2022-08-05T22:36:18.914Z,58.24
2022-08-05T22:38:48.029Z,58.42
2022-08-05T22:41:15.430Z,58.26
2022-08-05T22:43:52.950Z,58.11
2022-08-05T22:46:23.218Z,57.69
2022-08-05T22:48:53.284Z,57.78
2022-08-05T22:51:23.220Z,57.85
2022-08-05T22:54:06.535Z,58.24
2022-08-05T22:56:33.718Z,57.97
2022-08-05T22:59:03.202Z,57.89
2022-08-05T23:02:04.825Z,57.99
2022-08-05T23:04:17.745Z,57.99
2022-08-05T23:06:44.183Z,58.09
2022-08-05T23:09:27.697Z,58.15
2022-08-05T23:11:58.344Z,58.16
2022-08-05T23:14:32.057Z,58.32
2022-08-05T23:17:18.686Z,58.41
2022-08-05T23:19:56.356Z,58.49
2022-08-05T23:22:27.487Z,58.42
2022-08-05T23:24:54.870Z,58.41
2022-08-05T23:27:21.383Z,58.27
2022-08-05T23:29:50.653Z,58.33
2022-08-05T23:32:17.236Z,57.95
2022-08-05T23:34:49.508Z,58.27
2022-08-05T23:37:17.628Z,58.22
2022-08-05T23:39:53.298Z,58.29
2022-08-05T23:42:23.574Z,58.16
2022-08-05T23:44:56.009Z,58.10
2022-08-05T23:47:22.517Z,58.14
2022-08-05T23:49:52.104Z,57.91
2022-08-05T23:52:32.615Z,58.05
2022-08-05T23:55:07.131Z,58.03
2022-08-05T23:57:36.204Z,57.97
